sensor_id;sensor_type;location;lat;lon;timestamp;temperature;humidity
9223;DHT22;7557;51.698;3.942;2023-06-26T00:00:12;24.40;97.90
9223;DHT22;7557;51.698;3.942;2023-06-26T00:02:41;24.40;98.00
9223;DHT22;7557;51.698;3.942;2023-06-26T00:05:08;24.50;98.00
9223;DHT22;7557;51.698;3.942;2023-06-26T00:07:37;24.50;98.00
9223;DHT22;7557;51.698;3.942;2023-06-26T00:10:05;24.40;98.10
9223;DHT22;7557;51.698;3.942;2023-06-26T00:12:33;24.40;98.20
9223;DHT22;7557;51.698;3.942;2023-06-26T00:15:00;24.20;98.30
9223;DHT22;7557;51.698;3.942;2023-06-26T00:17:27;24.30;98.40
9223;DHT22;7557;51.698;3.942;2023-06-26T00:19:55;24.20;98.50
9223;DHT22;7557;51.698;3.942;2023-06-26T00:22:22;24.10;98.70
9223;DHT22;7557;51.698;3.942;2023-06-26T00:24:50;24.00;98.70
9223;DHT22;7557;51.698;3.942;2023-06-26T00:27:17;23.90;99.00
9223;DHT22;7557;51.698;3.942;2023-06-26T00:29:44;23.80;99.20
9223;DHT22;7557;51.698;3.942;2023-06-26T00:32:12;23.90;99.30
9223;DHT22;7557;51.698;3.942;2023-06-26T00:34:39;23.80;99.40
9223;DHT22;7557;51.698;3.942;2023-06-26T00:37:06;23.70;99.60
9223;DHT22;7557;51.698;3.942;2023-06-26T00:39:33;23.70;99.70
9223;DHT22;7557;51.698;3.942;2023-06-26T00:42:02;23.60;99.80
9223;DHT22;7557;51.698;3.942;2023-06-26T00:44:29;23.60;99.90
9223;DHT22;7557;51.698;3.942;2023-06-26T00:50:07;23.50;99.90
9223;DHT22;7557;51.698;3.942;2023-06-26T00:52:35;23.50;99.90
9223;DHT22;7557;51.698;3.942;2023-06-26T00:55:02;23.60;99.90
9223;DHT22;7557;51.698;3.942;2023-06-26T00:57:31;23.60;99.90
9223;DHT22;7557;51.698;3.942;2023-06-26T00:59:58;23.60;99.90
9223;DHT22;7557;51.698;3.942;2023-06-26T01:02:26;23.50;99.90
9223;DHT22;7557;51.698;3.942;2023-06-26T01:05:00;23.50;99.90
9223;DHT22;7557;51.698;3.942;2023-06-26T01:07:29;23.50;99.90
9223;DHT22;7557;51.698;3.942;2023-06-26T01:10:02;23.50;99.90
9223;DHT22;7557;51.698;3.942;2023-06-26T01:12:31;23.50;99.90
9223;DHT22;7557;51.698;3.942;2023-06-26T01:14:59;23.50;99.90
9223;DHT22;7557;51.698;3.942;2023-06-26T01:17:28;23.40;99.90
9223;DHT22;7557;51.698;3.942;2023-06-26T01:19:58;23.40;99.90
9223;DHT22;7557;51.698;3.942;2023-06-26T01:22:34;23.40;99.90
9223;DHT22;7557;51.698;3.942;2023-06-26T01:25:15;23.40;99.90
9223;DHT22;7557;51.698;3.942;2023-06-26T01:27:49;23.40;99.90
9223;DHT22;7557;51.698;3.942;2023-06-26T01:30:17;23.40;99.90
9223;DHT22;7557;51.698;3.942;2023-06-26T01:32:45;23.40;99.90
9223;DHT22;7557;51.698;3.942;2023-06-26T01:35:13;23.50;99.90
9223;DHT22;7557;51.698;3.942;2023-06-26T01:37:41;23.50;99.90
9223;DHT22;7557;51.698;3.942;2023-06-26T01:40:10;23.40;99.90
9223;DHT22;7557;51.698;3.942;2023-06-26T01:42:37;23.30;99.90
9223;DHT22;7557;51.698;3.942;2023-06-26T01:45:12;23.40;99.90
9223;DHT22;7557;51.698;3.942;2023-06-26T01:47:43;23.40;99.90
9223;DHT22;7557;51.698;3.942;2023-06-26T01:50:14;23.40;99.90
9223;DHT22;7557;51.698;3.942;2023-06-26T01:52:52;23.40;99.90
9223;DHT22;7557;51.698;3.942;2023-06-26T01:55:26;23.30;99.90
9223;DHT22;7557;51.698;3.942;2023-06-26T01:57:56;23.30;99.90
9223;DHT22;7557;51.698;3.942;2023-06-26T02:00:27;23.20;99.90
9223;DHT22;7557;51.698;3.942;2023-06-26T02:02:54;23.20;99.90
9223;DHT22;7557;51.698;3.942;2023-06-26T02:05:22;23.20;99.90
9223;DHT22;7557;51.698;3.942;2023-06-26T02:07:49;23.20;99.90
9223;DHT22;7557;51.698;3.942;2023-06-26T02:10:17;23.20;99.90
9223;DHT22;7557;51.698;3.942;2023-06-26T02:12:44;23.20;99.90
9223;DHT22;7557;51.698;3.942;2023-06-26T02:15:11;23.10;99.90
9223;DHT22;7557;51.698;3.942;2023-06-26T02:17:40;23.10;99.90
9223;DHT22;7557;51.698;3.942;2023-06-26T02:20:08;23.10;99.90
9223;DHT22;7557;51.698;3.942;2023-06-26T02:22:36;23.20;99.90
9223;DHT22;7557;51.698;3.942;2023-06-26T02:25:03;23.20;99.90
9223;DHT22;7557;51.698;3.942;2023-06-26T02:27:31;23.10;99.90
9223;DHT22;7557;51.698;3.942;2023-06-26T02:29:58;23.10;99.90
9223;DHT22;7557;51.698;3.942;2023-06-26T02:32:25;23.00;99.90
9223;DHT22;7557;51.698;3.942;2023-06-26T02:34:53;23.10;99.90
9223;DHT22;7557;51.698;3.942;2023-06-26T02:37:21;23.10;99.90
9223;DHT22;7557;51.698;3.942;2023-06-26T02:39:48;23.10;99.90
9223;DHT22;7557;51.698;3.942;2023-06-26T02:42:16;23.10;99.90
9223;DHT22;7557;51.698;3.942;2023-06-26T02:44:44;23.10;99.90
9223;DHT22;7557;51.698;3.942;2023-06-26T02:47:12;22.90;99.90
9223;DHT22;7557;51.698;3.942;2023-06-26T02:49:39;22.90;99.90
9223;DHT22;7557;51.698;3.942;2023-06-26T02:52:08;22.90;99.90
9223;DHT22;7557;51.698;3.942;2023-06-26T02:54:35;22.90;99.90
9223;DHT22;7557;51.698;3.942;2023-06-26T02:57:02;22.90;99.90
9223;DHT22;7557;51.698;3.942;2023-06-26T02:59:29;22.90;99.90
9223;DHT22;7557;51.698;3.942;2023-06-26T03:01:56;22.90;99.90
9223;DHT22;7557;51.698;3.942;2023-06-26T03:04:23;22.90;99.90
9223;DHT22;7557;51.698;3.942;2023-06-26T03:06:50;22.90;99.90
9223;DHT22;7557;51.698;3.942;2023-06-26T03:09:19;22.80;99.90
9223;DHT22;7557;51.698;3.942;2023-06-26T03:12:21;22.80;99.90
9223;DHT22;7557;51.698;3.942;2023-06-26T03:14:50;22.80;99.90
9223;DHT22;7557;51.698;3.942;2023-06-26T03:17:17;22.80;99.90
9223;DHT22;7557;51.698;3.942;2023-06-26T03:19:44;22.70;99.90
9223;DHT22;7557;51.698;3.942;2023-06-26T03:22:11;22.60;99.90
9223;DHT22;7557;51.698;3.942;2023-06-26T03:24:38;22.60;99.90
9223;DHT22;7557;51.698;3.942;2023-06-26T03:27:07;22.40;99.90
9223;DHT22;7557;51.698;3.942;2023-06-26T03:29:36;22.40;99.90
9223;DHT22;7557;51.698;3.942;2023-06-26T03:32:04;22.30;99.90
9223;DHT22;7557;51.698;3.942;2023-06-26T03:34:31;22.20;99.90
9223;DHT22;7557;51.698;3.942;2023-06-26T03:36:59;22.10;99.80
9223;DHT22;7557;51.698;3.942;2023-06-26T03:39:27;22.00;99.70
9223;DHT22;7557;51.698;3.942;2023-06-26T03:41:55;21.90;99.50
9223;DHT22;7557;51.698;3.942;2023-06-26T03:44:26;21.70;99.40
9223;DHT22;7557;51.698;3.942;2023-06-26T03:46:55;21.70;99.40
9223;DHT22;7557;51.698;3.942;2023-06-26T03:49:22;21.60;99.40
9223;DHT22;7557;51.698;3.942;2023-06-26T03:51:50;21.60;99.40
9223;DHT22;7557;51.698;3.942;2023-06-26T03:54:17;21.50;99.50
9223;DHT22;7557;51.698;3.942;2023-06-26T03:56:45;21.50;99.70
9223;DHT22;7557;51.698;3.942;2023-06-26T03:59:12;21.40;99.80
9223;DHT22;7557;51.698;3.942;2023-06-26T04:01:39;21.20;99.90
9223;DHT22;7557;51.698;3.942;2023-06-26T04:04:08;21.10;99.90
9223;DHT22;7557;51.698;3.942;2023-06-26T04:06:35;20.80;99.90
9223;DHT22;7557;51.698;3.942;2023-06-26T04:09:03;20.60;99.90
9223;DHT22;7557;51.698;3.942;2023-06-26T04:11:30;20.60;99.90
9223;DHT22;7557;51.698;3.942;2023-06-26T04:13:58;20.50;99.90
9223;DHT22;7557;51.698;3.942;2023-06-26T04:16:26;20.40;99.90
9223;DHT22;7557;51.698;3.942;2023-06-26T04:18:53;20.40;99.90
9223;DHT22;7557;51.698;3.942;2023-06-26T04:21:23;20.40;99.90
9223;DHT22;7557;51.698;3.942;2023-06-26T04:23:51;20.40;99.90
9223;DHT22;7557;51.698;3.942;2023-06-26T04:26:19;20.50;99.90
9223;DHT22;7557;51.698;3.942;2023-06-26T04:28:46;20.60;99.90
9223;DHT22;7557;51.698;3.942;2023-06-26T04:31:15;20.50;99.90
9223;DHT22;7557;51.698;3.942;2023-06-26T04:33:43;20.50;99.90
9223;DHT22;7557;51.698;3.942;2023-06-26T04:36:10;20.50;99.90
9223;DHT22;7557;51.698;3.942;2023-06-26T04:38:39;20.40;99.90
9223;DHT22;7557;51.698;3.942;2023-06-26T04:41:07;20.30;99.90
9223;DHT22;7557;51.698;3.942;2023-06-26T04:43:34;20.30;99.90
9223;DHT22;7557;51.698;3.942;2023-06-26T04:46:02;20.20;99.90
9223;DHT22;7557;51.698;3.942;2023-06-26T04:48:30;20.20;99.90
9223;DHT22;7557;51.698;3.942;2023-06-26T04:50:57;20.20;99.90
9223;DHT22;7557;51.698;3.942;2023-06-26T04:53:25;20.20;99.90
9223;DHT22;7557;51.698;3.942;2023-06-26T04:55:54;20.20;99.90
9223;DHT22;7557;51.698;3.942;2023-06-26T04:58:22;20.20;99.90
9223;DHT22;7557;51.698;3.942;2023-06-26T05:00:49;20.20;99.90
9223;DHT22;7557;51.698;3.942;2023-06-26T05:03:17;20.20;99.90
9223;DHT22;7557;51.698;3.942;2023-06-26T05:05:45;20.10;99.90
9223;DHT22;7557;51.698;3.942;2023-06-26T05:08:16;20.00;99.90
9223;DHT22;7557;51.698;3.942;2023-06-26T05:10:44;19.90;99.90
9223;DHT22;7557;51.698;3.942;2023-06-26T05:13:14;19.80;99.90
9223;DHT22;7557;51.698;3.942;2023-06-26T05:15:43;19.80;99.90
9223;DHT22;7557;51.698;3.942;2023-06-26T05:18:11;19.80;99.90
9223;DHT22;7557;51.698;3.942;2023-06-26T05:20:39;19.90;99.90
9223;DHT22;7557;51.698;3.942;2023-06-26T05:23:06;19.90;99.90
9223;DHT22;7557;51.698;3.942;2023-06-26T05:25:34;19.90;99.90
9223;DHT22;7557;51.698;3.942;2023-06-26T05:28:02;19.90;99.90
9223;DHT22;7557;51.698;3.942;2023-06-26T05:30:33;20.00;99.90
9223;DHT22;7557;51.698;3.942;2023-06-26T05:33:02;20.00;99.90
9223;DHT22;7557;51.698;3.942;2023-06-26T05:35:31;20.10;99.90
9223;DHT22;7557;51.698;3.942;2023-06-26T05:38:00;20.20;99.90
9223;DHT22;7557;51.698;3.942;2023-06-26T05:40:28;20.30;99.90
9223;DHT22;7557;51.698;3.942;2023-06-26T05:42:56;20.40;99.90
9223;DHT22;7557;51.698;3.942;2023-06-26T05:45:24;20.40;99.90
9223;DHT22;7557;51.698;3.942;2023-06-26T05:47:53;20.50;99.90
9223;DHT22;7557;51.698;3.942;2023-06-26T05:50:20;20.50;99.90
9223;DHT22;7557;51.698;3.942;2023-06-26T05:52:48;20.60;99.90
9223;DHT22;7557;51.698;3.942;2023-06-26T05:55:17;20.70;99.90
9223;DHT22;7557;51.698;3.942;2023-06-26T05:57:46;20.80;99.90
9223;DHT22;7557;51.698;3.942;2023-06-26T06:00:14;20.80;99.50
9223;DHT22;7557;51.698;3.942;2023-06-26T06:02:44;20.70;99.20
9223;DHT22;7557;51.698;3.942;2023-06-26T06:05:13;20.60;99.20
9223;DHT22;7557;51.698;3.942;2023-06-26T06:07:40;20.60;99.30
9223;DHT22;7557;51.698;3.942;2023-06-26T06:10:08;20.50;99.40
9223;DHT22;7557;51.698;3.942;2023-06-26T06:12:36;20.60;99.20
9223;DHT22;7557;51.698;3.942;2023-06-26T06:15:03;20.70;99.10
9223;DHT22;7557;51.698;3.942;2023-06-26T06:17:31;20.70;99.20
9223;DHT22;7557;51.698;3.942;2023-06-26T06:19:58;20.80;99.20
9223;DHT22;7557;51.698;3.942;2023-06-26T06:22:27;21.00;99.00
9223;DHT22;7557;51.698;3.942;2023-06-26T06:24:54;21.20;98.90
9223;DHT22;7557;51.698;3.942;2023-06-26T06:27:21;21.30;98.20
9223;DHT22;7557;51.698;3.942;2023-06-26T06:29:48;21.30;98.50
9223;DHT22;7557;51.698;3.942;2023-06-26T06:32:16;21.30;98.10
9223;DHT22;7557;51.698;3.942;2023-06-26T06:34:43;21.40;98.00
9223;DHT22;7557;51.698;3.942;2023-06-26T06:37:11;21.30;98.10
9223;DHT22;7557;51.698;3.942;2023-06-26T06:39:39;21.20;98.00
9223;DHT22;7557;51.698;3.942;2023-06-26T06:42:07;21.30;97.80
9223;DHT22;7557;51.698;3.942;2023-06-26T06:44:34;21.20;97.90
9223;DHT22;7557;51.698;3.942;2023-06-26T06:47:02;21.20;98.00
9223;DHT22;7557;51.698;3.942;2023-06-26T06:49:29;21.30;97.70
9223;DHT22;7557;51.698;3.942;2023-06-26T06:51:57;21.40;97.80
9223;DHT22;7557;51.698;3.942;2023-06-26T06:54:26;21.50;97.90
9223;DHT22;7557;51.698;3.942;2023-06-26T06:56:56;21.50;97.30
9223;DHT22;7557;51.698;3.942;2023-06-26T06:59:23;21.40;97.40
9223;DHT22;7557;51.698;3.942;2023-06-26T07:01:51;21.40;97.40
9223;DHT22;7557;51.698;3.942;2023-06-26T07:04:18;21.40;97.30
9223;DHT22;7557;51.698;3.942;2023-06-26T07:06:45;21.40;97.50
9223;DHT22;7557;51.698;3.942;2023-06-26T07:09:13;21.40;97.60
9223;DHT22;7557;51.698;3.942;2023-06-26T07:11:41;21.50;97.70
9223;DHT22;7557;51.698;3.942;2023-06-26T07:14:09;21.70;97.60
9223;DHT22;7557;51.698;3.942;2023-06-26T07:16:37;21.80;97.50
9223;DHT22;7557;51.698;3.942;2023-06-26T07:19:04;21.80;97.40
9223;DHT22;7557;51.698;3.942;2023-06-26T07:21:32;21.80;97.60
9223;DHT22;7557;51.698;3.942;2023-06-26T07:23:59;22.10;97.60
9223;DHT22;7557;51.698;3.942;2023-06-26T07:26:26;22.30;97.20
9223;DHT22;7557;51.698;3.942;2023-06-26T07:28:53;22.60;96.50
9223;DHT22;7557;51.698;3.942;2023-06-26T07:31:23;22.60;96.20
9223;DHT22;7557;51.698;3.942;2023-06-26T07:33:51;22.60;96.30
9223;DHT22;7557;51.698;3.942;2023-06-26T07:36:18;22.60;96.50
9223;DHT22;7557;51.698;3.942;2023-06-26T07:38:46;22.50;96.50
9223;DHT22;7557;51.698;3.942;2023-06-26T07:41:13;22.30;96.70
9223;DHT22;7557;51.698;3.942;2023-06-26T07:43:40;22.20;96.60
9223;DHT22;7557;51.698;3.942;2023-06-26T07:46:08;22.00;96.80
9223;DHT22;7557;51.698;3.942;2023-06-26T07:48:37;21.90;97.20
9223;DHT22;7557;51.698;3.942;2023-06-26T07:51:04;21.90;97.50
9223;DHT22;7557;51.698;3.942;2023-06-26T07:53:31;21.90;97.70
9223;DHT22;7557;51.698;3.942;2023-06-26T07:55:58;22.00;97.70
9223;DHT22;7557;51.698;3.942;2023-06-26T07:58:26;22.30;97.30
9223;DHT22;7557;51.698;3.942;2023-06-26T08:00:53;22.30;96.90
9223;DHT22;7557;51.698;3.942;2023-06-26T08:03:20;22.20;96.90
9223;DHT22;7557;51.698;3.942;2023-06-26T08:05:50;22.00;97.00
9223;DHT22;7557;51.698;3.942;2023-06-26T08:08:17;21.90;97.60
9223;DHT22;7557;51.698;3.942;2023-06-26T08:10:44;22.10;97.60
9223;DHT22;7557;51.698;3.942;2023-06-26T08:13:12;22.30;97.40
9223;DHT22;7557;51.698;3.942;2023-06-26T08:15:39;22.50;97.20
9223;DHT22;7557;51.698;3.942;2023-06-26T08:18:07;22.60;97.00
9223;DHT22;7557;51.698;3.942;2023-06-26T08:20:34;22.60;96.70
9223;DHT22;7557;51.698;3.942;2023-06-26T08:23:04;22.60;96.90
9223;DHT22;7557;51.698;3.942;2023-06-26T08:25:33;22.80;96.70
9223;DHT22;7557;51.698;3.942;2023-06-26T08:28:00;23.00;96.60
9223;DHT22;7557;51.698;3.942;2023-06-26T08:30:27;23.20;96.10
9223;DHT22;7557;51.698;3.942;2023-06-26T08:32:55;23.00;96.20
9223;DHT22;7557;51.698;3.942;2023-06-26T08:35:22;23.10;96.20
9223;DHT22;7557;51.698;3.942;2023-06-26T08:37:50;23.30;96.00
9223;DHT22;7557;51.698;3.942;2023-06-26T08:40:19;23.40;95.60
9223;DHT22;7557;51.698;3.942;2023-06-26T08:42:47;23.20;95.50
9223;DHT22;7557;51.698;3.942;2023-06-26T08:45:18;22.90;95.80
9223;DHT22;7557;51.698;3.942;2023-06-26T08:47:48;22.60;96.30
9223;DHT22;7557;51.698;3.942;2023-06-26T08:50:20;22.50;96.70
9223;DHT22;7557;51.698;3.942;2023-06-26T08:52:54;22.40;97.10
9223;DHT22;7557;51.698;3.942;2023-06-26T08:55:26;22.40;97.40
9223;DHT22;7557;51.698;3.942;2023-06-26T08:57:54;22.50;97.00
9223;DHT22;7557;51.698;3.942;2023-06-26T09:00:22;22.70;97.10
9223;DHT22;7557;51.698;3.942;2023-06-26T09:02:50;22.90;96.90
9223;DHT22;7557;51.698;3.942;2023-06-26T09:05:17;23.00;96.80
9223;DHT22;7557;51.698;3.942;2023-06-26T09:07:45;23.10;96.60
9223;DHT22;7557;51.698;3.942;2023-06-26T09:10:13;23.40;96.10
9223;DHT22;7557;51.698;3.942;2023-06-26T09:12:46;23.50;96.50
9223;DHT22;7557;51.698;3.942;2023-06-26T09:15:15;23.40;96.10
9223;DHT22;7557;51.698;3.942;2023-06-26T09:17:42;23.20;95.90
9223;DHT22;7557;51.698;3.942;2023-06-26T09:20:10;23.00;96.00
9223;DHT22;7557;51.698;3.942;2023-06-26T09:22:41;22.80;96.00
9223;DHT22;7557;51.698;3.942;2023-06-26T09:25:09;22.60;96.20
9223;DHT22;7557;51.698;3.942;2023-06-26T09:27:37;22.60;96.50
9223;DHT22;7557;51.698;3.942;2023-06-26T09:30:07;22.80;96.10
9223;DHT22;7557;51.698;3.942;2023-06-26T09:32:35;22.90;95.90
9223;DHT22;7557;51.698;3.942;2023-06-26T09:35:04;23.00;95.70
9223;DHT22;7557;51.698;3.942;2023-06-26T09:37:32;23.30;95.70
9223;DHT22;7557;51.698;3.942;2023-06-26T09:40:01;23.20;95.50
9223;DHT22;7557;51.698;3.942;2023-06-26T09:42:29;23.10;95.20
9223;DHT22;7557;51.698;3.942;2023-06-26T09:44:57;23.00;94.80
9223;DHT22;7557;51.698;3.942;2023-06-26T09:47:26;22.80;94.90
9223;DHT22;7557;51.698;3.942;2023-06-26T09:49:54;22.80;95.10
9223;DHT22;7557;51.698;3.942;2023-06-26T09:52:21;22.80;95.40
9223;DHT22;7557;51.698;3.942;2023-06-26T09:54:49;22.70;95.10
9223;DHT22;7557;51.698;3.942;2023-06-26T09:57:18;22.80;95.60
9223;DHT22;7557;51.698;3.942;2023-06-26T09:59:45;22.90;95.50
9223;DHT22;7557;51.698;3.942;2023-06-26T10:02:13;22.80;95.40
9223;DHT22;7557;51.698;3.942;2023-06-26T10:04:41;22.90;95.80
9223;DHT22;7557;51.698;3.942;2023-06-26T10:07:11;23.10;95.00
9223;DHT22;7557;51.698;3.942;2023-06-26T10:09:42;23.10;95.00
9223;DHT22;7557;51.698;3.942;2023-06-26T10:12:17;23.00;95.30
9223;DHT22;7557;51.698;3.942;2023-06-26T10:14:46;23.30;95.00
9223;DHT22;7557;51.698;3.942;2023-06-26T10:17:18;23.30;94.80
9223;DHT22;7557;51.698;3.942;2023-06-26T10:19:48;23.20;95.50
9223;DHT22;7557;51.698;3.942;2023-06-26T10:22:18;23.50;95.10
9223;DHT22;7557;51.698;3.942;2023-06-26T10:24:48;23.70;94.80
9223;DHT22;7557;51.698;3.942;2023-06-26T10:27:18;23.70;94.70
9223;DHT22;7557;51.698;3.942;2023-06-26T10:29:49;23.80;94.50
9223;DHT22;7557;51.698;3.942;2023-06-26T10:32:18;23.70;94.00
9223;DHT22;7557;51.698;3.942;2023-06-26T10:34:48;23.60;94.40
9223;DHT22;7557;51.698;3.942;2023-06-26T10:37:16;23.80;94.70
9223;DHT22;7557;51.698;3.942;2023-06-26T10:39:47;24.10;94.40
9223;DHT22;7557;51.698;3.942;2023-06-26T10:42:16;24.30;94.00
9223;DHT22;7557;51.698;3.942;2023-06-26T10:44:44;24.40;93.80
9223;DHT22;7557;51.698;3.942;2023-06-26T10:47:12;24.40;93.60
9223;DHT22;7557;51.698;3.942;2023-06-26T10:49:57;24.40;94.00
9223;DHT22;7557;51.698;3.942;2023-06-26T10:52:43;24.80;93.70
9223;DHT22;7557;51.698;3.942;2023-06-26T10:55:10;25.10;93.20
9223;DHT22;7557;51.698;3.942;2023-06-26T10:57:38;25.40;92.90
9223;DHT22;7557;51.698;3.942;2023-06-26T11:00:08;25.60;92.50
9223;DHT22;7557;51.698;3.942;2023-06-26T11:02:47;25.70;92.20
9223;DHT22;7557;51.698;3.942;2023-06-26T11:05:26;25.70;91.70
9223;DHT22;7557;51.698;3.942;2023-06-26T11:08:06;25.50;91.50
9223;DHT22;7557;51.698;3.942;2023-06-26T11:10:51;25.40;91.90
9223;DHT22;7557;51.698;3.942;2023-06-26T11:13:19;25.30;92.30
9223;DHT22;7557;51.698;3.942;2023-06-26T11:15:47;25.30;92.80
9223;DHT22;7557;51.698;3.942;2023-06-26T11:18:16;25.40;92.90
9223;DHT22;7557;51.698;3.942;2023-06-26T11:20:45;25.50;92.90
9223;DHT22;7557;51.698;3.942;2023-06-26T11:23:14;25.50;92.40
9223;DHT22;7557;51.698;3.942;2023-06-26T11:25:46;25.40;91.70
9223;DHT22;7557;51.698;3.942;2023-06-26T11:28:14;25.20;92.00
9223;DHT22;7557;51.698;3.942;2023-06-26T11:30:41;25.20;93.10
9223;DHT22;7557;51.698;3.942;2023-06-26T11:33:10;25.40;93.30
9223;DHT22;7557;51.698;3.942;2023-06-26T11:35:37;25.70;93.30
9223;DHT22;7557;51.698;3.942;2023-06-26T11:38:06;25.80;92.30
9223;DHT22;7557;51.698;3.942;2023-06-26T11:40:35;25.60;92.60
9223;DHT22;7557;51.698;3.942;2023-06-26T11:43:03;25.60;92.60
9223;DHT22;7557;51.698;3.942;2023-06-26T11:45:31;25.70;92.40
9223;DHT22;7557;51.698;3.942;2023-06-26T11:48:00;25.70;91.80
9223;DHT22;7557;51.698;3.942;2023-06-26T11:50:27;25.70;92.30
9223;DHT22;7557;51.698;3.942;2023-06-26T11:52:55;25.60;92.10
9223;DHT22;7557;51.698;3.942;2023-06-26T11:55:25;25.70;92.30
9223;DHT22;7557;51.698;3.942;2023-06-26T11:57:54;25.80;91.50
9223;DHT22;7557;51.698;3.942;2023-06-26T12:00:23;25.60;91.60
9223;DHT22;7557;51.698;3.942;2023-06-26T12:02:50;25.60;91.80
9223;DHT22;7557;51.698;3.942;2023-06-26T12:05:19;25.60;92.20
9223;DHT22;7557;51.698;3.942;2023-06-26T12:07:47;25.60;92.60
9223;DHT22;7557;51.698;3.942;2023-06-26T12:10:17;25.70;92.70
9223;DHT22;7557;51.698;3.942;2023-06-26T12:12:47;25.90;92.40
9223;DHT22;7557;51.698;3.942;2023-06-26T12:15:15;25.90;92.90
9223;DHT22;7557;51.698;3.942;2023-06-26T12:17:43;26.10;93.20
9223;DHT22;7557;51.698;3.942;2023-06-26T12:20:20;26.30;93.40
9223;DHT22;7557;51.698;3.942;2023-06-26T12:22:48;26.40;92.80
9223;DHT22;7557;51.698;3.942;2023-06-26T12:25:22;26.10;91.50
9223;DHT22;7557;51.698;3.942;2023-06-26T12:27:51;25.60;91.60
9223;DHT22;7557;51.698;3.942;2023-06-26T12:30:19;25.30;92.40
9223;DHT22;7557;51.698;3.942;2023-06-26T12:32:46;25.10;93.20
9223;DHT22;7557;51.698;3.942;2023-06-26T12:35:14;25.30;93.50
9223;DHT22;7557;51.698;3.942;2023-06-26T12:37:42;25.40;93.40
9223;DHT22;7557;51.698;3.942;2023-06-26T12:40:20;25.60;93.20
9223;DHT22;7557;51.698;3.942;2023-06-26T12:42:49;25.90;92.90
9223;DHT22;7557;51.698;3.942;2023-06-26T12:45:17;26.00;92.80
9223;DHT22;7557;51.698;3.942;2023-06-26T12:47:46;26.10;92.50
9223;DHT22;7557;51.698;3.942;2023-06-26T12:50:14;26.30;92.50
9223;DHT22;7557;51.698;3.942;2023-06-26T12:52:42;26.40;92.50
9223;DHT22;7557;51.698;3.942;2023-06-26T12:55:10;26.50;92.40
9223;DHT22;7557;51.698;3.942;2023-06-26T12:57:37;26.60;92.30
9223;DHT22;7557;51.698;3.942;2023-06-26T13:00:06;26.40;91.60
9223;DHT22;7557;51.698;3.942;2023-06-26T13:02:37;26.10;91.20
9223;DHT22;7557;51.698;3.942;2023-06-26T13:05:05;25.80;91.70
9223;DHT22;7557;51.698;3.942;2023-06-26T13:07:33;25.60;91.90
9223;DHT22;7557;51.698;3.942;2023-06-26T13:10:00;25.50;92.20
9223;DHT22;7557;51.698;3.942;2023-06-26T13:12:27;25.30;91.60
9223;DHT22;7557;51.698;3.942;2023-06-26T13:14:55;25.00;91.00
9223;DHT22;7557;51.698;3.942;2023-06-26T13:17:22;24.70;91.50
9223;DHT22;7557;51.698;3.942;2023-06-26T13:19:51;24.60;92.70
9223;DHT22;7557;51.698;3.942;2023-06-26T13:22:19;24.50;93.30
9223;DHT22;7557;51.698;3.942;2023-06-26T13:24:46;24.60;93.50
9223;DHT22;7557;51.698;3.942;2023-06-26T13:27:14;24.90;93.20
9223;DHT22;7557;51.698;3.942;2023-06-26T13:29:42;25.10;92.60
9223;DHT22;7557;51.698;3.942;2023-06-26T13:32:09;25.00;92.60
9223;DHT22;7557;51.698;3.942;2023-06-26T13:34:36;25.10;93.10
9223;DHT22;7557;51.698;3.942;2023-06-26T13:37:05;24.90;92.00
9223;DHT22;7557;51.698;3.942;2023-06-26T13:39:33;24.70;92.40
9223;DHT22;7557;51.698;3.942;2023-06-26T13:42:00;24.60;92.40
9223;DHT22;7557;51.698;3.942;2023-06-26T13:44:28;24.60;91.90
9223;DHT22;7557;51.698;3.942;2023-06-26T13:46:57;24.50;91.90
9223;DHT22;7557;51.698;3.942;2023-06-26T13:49:25;24.30;91.80
9223;DHT22;7557;51.698;3.942;2023-06-26T13:51:52;24.20;92.60
9223;DHT22;7557;51.698;3.942;2023-06-26T13:54:20;24.10;93.00
9223;DHT22;7557;51.698;3.942;2023-06-26T13:56:48;24.10;93.10
9223;DHT22;7557;51.698;3.942;2023-06-26T13:59:15;24.20;92.40
9223;DHT22;7557;51.698;3.942;2023-06-26T14:01:43;24.00;92.70
9223;DHT22;7557;51.698;3.942;2023-06-26T14:04:11;24.00;93.40
9223;DHT22;7557;51.698;3.942;2023-06-26T14:06:38;24.00;93.90
9223;DHT22;7557;51.698;3.942;2023-06-26T14:09:06;24.10;93.50
9223;DHT22;7557;51.698;3.942;2023-06-26T14:11:35;24.10;93.40
9223;DHT22;7557;51.698;3.942;2023-06-26T14:14:03;24.20;93.20
9223;DHT22;7557;51.698;3.942;2023-06-26T14:16:30;24.40;93.10
9223;DHT22;7557;51.698;3.942;2023-06-26T14:18:58;24.50;92.70
9223;DHT22;7557;51.698;3.942;2023-06-26T14:21:25;24.60;92.70
9223;DHT22;7557;51.698;3.942;2023-06-26T14:23:55;24.60;92.80
9223;DHT22;7557;51.698;3.942;2023-06-26T14:26:22;24.60;92.20
9223;DHT22;7557;51.698;3.942;2023-06-26T14:28:51;24.40;92.80
9223;DHT22;7557;51.698;3.942;2023-06-26T14:31:18;24.40;93.10
9223;DHT22;7557;51.698;3.942;2023-06-26T14:33:47;24.50;92.80
9223;DHT22;7557;51.698;3.942;2023-06-26T14:36:14;24.40;92.70
9223;DHT22;7557;51.698;3.942;2023-06-26T14:38:42;24.20;92.80
9223;DHT22;7557;51.698;3.942;2023-06-26T14:41:09;24.10;93.00
9223;DHT22;7557;51.698;3.942;2023-06-26T14:43:37;24.20;92.80
9223;DHT22;7557;51.698;3.942;2023-06-26T14:46:07;24.20;93.00
9223;DHT22;7557;51.698;3.942;2023-06-26T14:48:34;24.40;92.90
9223;DHT22;7557;51.698;3.942;2023-06-26T14:51:01;24.50;92.60
9223;DHT22;7557;51.698;3.942;2023-06-26T14:53:28;24.40;91.80
9223;DHT22;7557;51.698;3.942;2023-06-26T14:55:56;24.30;92.70
9223;DHT22;7557;51.698;3.942;2023-06-26T14:58:23;24.20;92.90
9223;DHT22;7557;51.698;3.942;2023-06-26T15:00:50;24.20;92.40
9223;DHT22;7557;51.698;3.942;2023-06-26T15:03:19;24.20;92.40
9223;DHT22;7557;51.698;3.942;2023-06-26T15:05:47;24.20;93.00
9223;DHT22;7557;51.698;3.942;2023-06-26T15:08:14;24.40;92.90
9223;DHT22;7557;51.698;3.942;2023-06-26T15:10:42;24.70;93.00
9223;DHT22;7557;51.698;3.942;2023-06-26T15:13:09;24.80;92.50
9223;DHT22;7557;51.698;3.942;2023-06-26T15:15:37;25.00;92.10
9223;DHT22;7557;51.698;3.942;2023-06-26T15:18:04;25.00;91.80
9223;DHT22;7557;51.698;3.942;2023-06-26T15:20:33;24.90;91.70
9223;DHT22;7557;51.698;3.942;2023-06-26T15:23:01;24.70;92.20
9223;DHT22;7557;51.698;3.942;2023-06-26T15:25:28;24.60;92.40
9223;DHT22;7557;51.698;3.942;2023-06-26T15:27:57;24.60;92.80
9223;DHT22;7557;51.698;3.942;2023-06-26T15:30:24;24.70;92.80
9223;DHT22;7557;51.698;3.942;2023-06-26T15:32:51;24.80;92.60
9223;DHT22;7557;51.698;3.942;2023-06-26T15:35:19;24.80;92.60
9223;DHT22;7557;51.698;3.942;2023-06-26T15:37:48;25.00;92.50
9223;DHT22;7557;51.698;3.942;2023-06-26T15:40:16;25.10;92.40
9223;DHT22;7557;51.698;3.942;2023-06-26T15:42:46;25.20;92.50
9223;DHT22;7557;51.698;3.942;2023-06-26T15:45:14;25.20;92.40
9223;DHT22;7557;51.698;3.942;2023-06-26T15:47:43;25.30;92.40
9223;DHT22;7557;51.698;3.942;2023-06-26T15:50:11;25.40;92.40
9223;DHT22;7557;51.698;3.942;2023-06-26T15:52:38;25.50;92.10
9223;DHT22;7557;51.698;3.942;2023-06-26T15:55:08;25.60;92.00
9223;DHT22;7557;51.698;3.942;2023-06-26T15:57:35;25.60;92.00
9223;DHT22;7557;51.698;3.942;2023-06-26T16:00:03;25.70;91.80
9223;DHT22;7557;51.698;3.942;2023-06-26T16:02:31;25.70;91.70
9223;DHT22;7557;51.698;3.942;2023-06-26T16:04:59;25.70;91.80
9223;DHT22;7557;51.698;3.942;2023-06-26T16:07:26;25.60;91.80
9223;DHT22;7557;51.698;3.942;2023-06-26T16:09:55;25.60;91.90
9223;DHT22;7557;51.698;3.942;2023-06-26T16:12:24;25.60;91.90